sensor_id;sensor_type;location;lat;lon;timestamp;P1;durP1;ratioP1;P2;durP2;ratioP2
49392;SDS011;35268;42.642;23.308;2022-12-20T00:00:54;16.40;;;7.43;;
49392;SDS011;35268;42.642;23.308;2022-12-20T00:03:19;20.60;;;7.75;;
49392;SDS011;35268;42.642;23.308;2022-12-20T00:05:45;22.33;;;7.05;;
49392;SDS011;35268;42.642;23.308;2022-12-20T00:08:10;13.77;;;6.95;;
49392;SDS011;35268;42.642;23.308;2022-12-20T00:10:36;14.32;;;6.57;;
49392;SDS011;35268;42.642;23.308;2022-12-20T00:13:06;17.90;;;7.28;;
49392;SDS011;35268;42.642;23.308;2022-12-20T00:15:32;17.77;;;7.28;;
49392;SDS011;35268;42.642;23.308;2022-12-20T00:17:59;18.17;;;7.32;;
49392;SDS011;35268;42.642;23.308;2022-12-20T00:20:25;17.85;;;7.20;;
49392;SDS011;35268;42.642;23.308;2022-12-20T00:22:52;16.58;;;6.78;;
49392;SDS011;35268;42.642;23.308;2022-12-20T00:25:17;15.15;;;7.38;;
49392;SDS011;35268;42.642;23.308;2022-12-20T00:27:44;17.08;;;6.88;;
49392;SDS011;35268;42.642;23.308;2022-12-20T00:30:10;13.20;;;6.63;;
49392;SDS011;35268;42.642;23.308;2022-12-20T00:32:36;16.30;;;7.72;;
49392;SDS011;35268;42.642;23.308;2022-12-20T00:35:02;17.92;;;7.43;;
49392;SDS011;35268;42.642;23.308;2022-12-20T00:37:28;19.67;;;7.85;;
49392;SDS011;35268;42.642;23.308;2022-12-20T00:39:53;15.02;;;7.05;;
49392;SDS011;35268;42.642;23.308;2022-12-20T00:42:18;16.88;;;7.97;;
49392;SDS011;35268;42.642;23.308;2022-12-20T00:44:44;13.45;;;6.32;;
49392;SDS011;35268;42.642;23.308;2022-12-20T00:47:09;15.73;;;7.85;;
49392;SDS011;35268;42.642;23.308;2022-12-20T00:49:35;16.25;;;7.15;;
49392;SDS011;35268;42.642;23.308;2022-12-20T00:52:00;16.95;;;6.93;;
49392;SDS011;35268;42.642;23.308;2022-12-20T00:54:26;15.73;;;7.32;;
49392;SDS011;35268;42.642;23.308;2022-12-20T00:56:51;16.40;;;7.43;;
49392;SDS011;35268;42.642;23.308;2022-12-20T00:59:16;16.23;;;7.55;;
49392;SDS011;35268;42.642;23.308;2022-12-20T01:01:42;16.13;;;6.70;;
49392;SDS011;35268;42.642;23.308;2022-12-20T01:04:07;16.13;;;7.38;;
49392;SDS011;35268;42.642;23.308;2022-12-20T01:06:33;14.48;;;6.45;;
49392;SDS011;35268;42.642;23.308;2022-12-20T01:08:59;18.52;;;6.88;;
49392;SDS011;35268;42.642;23.308;2022-12-20T01:11:26;17.33;;;7.30;;
49392;SDS011;35268;42.642;23.308;2022-12-20T01:13:55;12.95;;;6.20;;
49392;SDS011;35268;42.642;23.308;2022-12-20T01:16:26;17.30;;;7.07;;
49392;SDS011;35268;42.642;23.308;2022-12-20T01:21:19;16.02;;;6.90;;
49392;SDS011;35268;42.642;23.308;2022-12-20T01:23:46;13.98;;;7.70;;
49392;SDS011;35268;42.642;23.308;2022-12-20T01:26:13;16.02;;;7.43;;
49392;SDS011;35268;42.642;23.308;2022-12-20T01:28:41;18.98;;;7.90;;
49392;SDS011;35268;42.642;23.308;2022-12-20T01:31:09;13.82;;;6.45;;
49392;SDS011;35268;42.642;23.308;2022-12-20T01:33:37;14.85;;;6.90;;
49392;SDS011;35268;42.642;23.308;2022-12-20T01:36:05;14.38;;;6.57;;
49392;SDS011;35268;42.642;23.308;2022-12-20T01:38:33;15.77;;;7.25;;
49392;SDS011;35268;42.642;23.308;2022-12-20T01:40:59;18.25;;;7.28;;
49392;SDS011;35268;42.642;23.308;2022-12-20T01:43:43;17.23;;;7.22;;
49392;SDS011;35268;42.642;23.308;2022-12-20T01:46:24;17.15;;;7.10;;
49392;SDS011;35268;42.642;23.308;2022-12-20T01:51:40;16.80;;;8.38;;
49392;SDS011;35268;42.642;23.308;2022-12-20T01:54:42;19.63;;;7.97;;
49392;SDS011;35268;42.642;23.308;2022-12-20T01:57:06;17.65;;;7.43;;
49392;SDS011;35268;42.642;23.308;2022-12-20T01:59:35;13.52;;;6.72;;
49392;SDS011;35268;42.642;23.308;2022-12-20T02:02:04;18.33;;;7.32;;
49392;SDS011;35268;42.642;23.308;2022-12-20T02:04:33;17.27;;;6.43;;
49392;SDS011;35268;42.642;23.308;2022-12-20T02:06:59;13.80;;;6.75;;
49392;SDS011;35268;42.642;23.308;2022-12-20T02:09:26;16.50;;;7.50;;
49392;SDS011;35268;42.642;23.308;2022-12-20T02:26:13;15.63;;;7.03;;
49392;SDS011;35268;42.642;23.308;2022-12-20T02:29:19;18.25;;;6.90;;
49392;SDS011;35268;42.642;23.308;2022-12-20T02:32:35;12.40;;;6.53;;
49392;SDS011;35268;42.642;23.308;2022-12-20T02:34:44;13.80;;;5.88;;
49392;SDS011;35268;42.642;23.308;2022-12-20T02:37:10;13.93;;;7.30;;
49392;SDS011;35268;42.642;23.308;2022-12-20T02:39:36;14.15;;;6.75;;
49392;SDS011;35268;42.642;23.308;2022-12-20T02:42:08;18.40;;;7.13;;
49392;SDS011;35268;42.642;23.308;2022-12-20T02:44:36;12.90;;;5.60;;
49392;SDS011;35268;42.642;23.308;2022-12-20T02:47:25;13.07;;;5.78;;
49392;SDS011;35268;42.642;23.308;2022-12-20T02:49:55;10.73;;;5.88;;
49392;SDS011;35268;42.642;23.308;2022-12-20T02:52:22;18.00;;;6.15;;
49392;SDS011;35268;42.642;23.308;2022-12-20T02:54:51;13.13;;;6.10;;
49392;SDS011;35268;42.642;23.308;2022-12-20T02:57:25;13.70;;;5.57;;
49392;SDS011;35268;42.642;23.308;2022-12-20T02:59:59;13.93;;;6.07;;
49392;SDS011;35268;42.642;23.308;2022-12-20T03:02:29;14.30;;;6.15;;
49392;SDS011;35268;42.642;23.308;2022-12-20T03:05:19;14.75;;;6.50;;
49392;SDS011;35268;42.642;23.308;2022-12-20T03:07:48;15.77;;;6.43;;
49392;SDS011;35268;42.642;23.308;2022-12-20T03:10:14;17.20;;;7.18;;
49392;SDS011;35268;42.642;23.308;2022-12-20T03:12:40;14.07;;;6.00;;
49392;SDS011;35268;42.642;23.308;2022-12-20T03:15:06;13.70;;;6.20;;
49392;SDS011;35268;42.642;23.308;2022-12-20T03:17:32;14.82;;;5.80;;
49392;SDS011;35268;42.642;23.308;2022-12-20T03:19:57;14.90;;;7.00;;
49392;SDS011;35268;42.642;23.308;2022-12-20T03:22:22;14.55;;;6.32;;
49392;SDS011;35268;42.642;23.308;2022-12-20T03:24:48;11.68;;;5.75;;
49392;SDS011;35268;42.642;23.308;2022-12-20T03:27:14;15.25;;;6.88;;
49392;SDS011;35268;42.642;23.308;2022-12-20T03:29:40;14.52;;;6.25;;
49392;SDS011;35268;42.642;23.308;2022-12-20T03:32:06;15.13;;;6.28;;
49392;SDS011;35268;42.642;23.308;2022-12-20T03:34:31;14.30;;;6.38;;
49392;SDS011;35268;42.642;23.308;2022-12-20T03:36:57;13.98;;;6.45;;
49392;SDS011;35268;42.642;23.308;2022-12-20T03:39:23;14.80;;;6.35;;
49392;SDS011;35268;42.642;23.308;2022-12-20T03:41:48;14.88;;;6.13;;
49392;SDS011;35268;42.642;23.308;2022-12-20T03:44:13;15.35;;;5.93;;
49392;SDS011;35268;42.642;23.308;2022-12-20T03:46:39;15.43;;;6.55;;
49392;SDS011;35268;42.642;23.308;2022-12-20T03:49:05;16.67;;;6.13;;
49392;SDS011;35268;42.642;23.308;2022-12-20T03:51:30;16.80;;;6.53;;
49392;SDS011;35268;42.642;23.308;2022-12-20T03:53:56;14.82;;;6.40;;
49392;SDS011;35268;42.642;23.308;2022-12-20T03:56:21;12.88;;;6.25;;
49392;SDS011;35268;42.642;23.308;2022-12-20T03:58:47;14.38;;;6.65;;
49392;SDS011;35268;42.642;23.308;2022-12-20T04:01:20;18.42;;;6.47;;
49392;SDS011;35268;42.642;23.308;2022-12-20T04:03:47;14.65;;;6.80;;
49392;SDS011;35268;42.642;23.308;2022-12-20T04:06:13;15.77;;;7.20;;
49392;SDS011;35268;42.642;23.308;2022-12-20T04:08:39;20.80;;;7.30;;
49392;SDS011;35268;42.642;23.308;2022-12-20T04:11:05;17.25;;;6.82;;
49392;SDS011;35268;42.642;23.308;2022-12-20T04:16:08;17.35;;;7.05;;
49392;SDS011;35268;42.642;23.308;2022-12-20T04:18:34;18.08;;;6.72;;
49392;SDS011;35268;42.642;23.308;2022-12-20T04:21:00;15.82;;;6.72;;
49392;SDS011;35268;42.642;23.308;2022-12-20T04:23:26;18.08;;;7.65;;
49392;SDS011;35268;42.642;23.308;2022-12-20T04:25:51;16.52;;;7.60;;
49392;SDS011;35268;42.642;23.308;2022-12-20T04:28:17;16.48;;;7.60;;
49392;SDS011;35268;42.642;23.308;2022-12-20T04:30:42;18.98;;;7.88;;
49392;SDS011;35268;42.642;23.308;2022-12-20T04:33:08;25.42;;;8.95;;
49392;SDS011;35268;42.642;23.308;2022-12-20T04:35:33;19.40;;;8.80;;
49392;SDS011;35268;42.642;23.308;2022-12-20T04:37:59;21.63;;;9.07;;
49392;SDS011;35268;42.642;23.308;2022-12-20T04:40:25;18.17;;;7.97;;
49392;SDS011;35268;42.642;23.308;2022-12-20T04:42:50;18.05;;;8.70;;
49392;SDS011;35268;42.642;23.308;2022-12-20T04:45:16;29.95;;;10.52;;
49392;SDS011;35268;42.642;23.308;2022-12-20T04:47:41;23.35;;;9.73;;
49392;SDS011;35268;42.642;23.308;2022-12-20T04:50:06;20.95;;;9.77;;
49392;SDS011;35268;42.642;23.308;2022-12-20T04:52:32;25.08;;;10.45;;
49392;SDS011;35268;42.642;23.308;2022-12-20T04:55:16;29.73;;;10.55;;
49392;SDS011;35268;42.642;23.308;2022-12-20T04:57:41;28.67;;;11.18;;
49392;SDS011;35268;42.642;23.308;2022-12-20T05:00:07;34.00;;;13.27;;
49392;SDS011;35268;42.642;23.308;2022-12-20T05:02:33;42.85;;;14.63;;
49392;SDS011;35268;42.642;23.308;2022-12-20T05:04:58;34.05;;;10.60;;
49392;SDS011;35268;42.642;23.308;2022-12-20T05:07:24;33.33;;;12.02;;
49392;SDS011;35268;42.642;23.308;2022-12-20T05:09:49;33.00;;;12.85;;
49392;SDS011;35268;42.642;23.308;2022-12-20T05:12:15;39.28;;;12.48;;
49392;SDS011;35268;42.642;23.308;2022-12-20T05:14:41;40.60;;;12.70;;
49392;SDS011;35268;42.642;23.308;2022-12-20T05:17:06;37.10;;;14.73;;
49392;SDS011;35268;42.642;23.308;2022-12-20T05:19:33;42.13;;;15.43;;
49392;SDS011;35268;42.642;23.308;2022-12-20T05:21:59;40.58;;;14.73;;
49392;SDS011;35268;42.642;23.308;2022-12-20T05:24:42;32.03;;;12.68;;
49392;SDS011;35268;42.642;23.308;2022-12-20T05:27:27;34.20;;;13.27;;
49392;SDS011;35268;42.642;23.308;2022-12-20T05:29:52;32.15;;;12.68;;
49392;SDS011;35268;42.642;23.308;2022-12-20T05:32:18;28.83;;;10.88;;
49392;SDS011;35268;42.642;23.308;2022-12-20T05:34:43;29.92;;;12.13;;
49392;SDS011;35268;42.642;23.308;2022-12-20T05:37:09;37.33;;;12.50;;
49392;SDS011;35268;42.642;23.308;2022-12-20T05:39:34;38.45;;;13.25;;
49392;SDS011;35268;42.642;23.308;2022-12-20T05:42:00;35.72;;;12.70;;
49392;SDS011;35268;42.642;23.308;2022-12-20T05:44:25;31.73;;;14.27;;
49392;SDS011;35268;42.642;23.308;2022-12-20T05:46:51;33.50;;;12.38;;
49392;SDS011;35268;42.642;23.308;2022-12-20T05:49:16;31.48;;;12.30;;
49392;SDS011;35268;42.642;23.308;2022-12-20T05:51:42;40.08;;;14.60;;
49392;SDS011;35268;42.642;23.308;2022-12-20T05:54:07;23.42;;;10.43;;
49392;SDS011;35268;42.642;23.308;2022-12-20T05:56:33;28.05;;;11.27;;
49392;SDS011;35268;42.642;23.308;2022-12-20T05:58:58;27.85;;;12.73;;
49392;SDS011;35268;42.642;23.308;2022-12-20T06:01:24;26.38;;;11.43;;
49392;SDS011;35268;42.642;23.308;2022-12-20T06:03:49;28.98;;;12.25;;
49392;SDS011;35268;42.642;23.308;2022-12-20T06:06:15;30.65;;;12.05;;
49392;SDS011;35268;42.642;23.308;2022-12-20T06:08:40;36.15;;;14.80;;
49392;SDS011;35268;42.642;23.308;2022-12-20T06:11:06;38.10;;;15.85;;
49392;SDS011;35268;42.642;23.308;2022-12-20T06:13:32;30.20;;;13.15;;
49392;SDS011;35268;42.642;23.308;2022-12-20T06:15:57;31.58;;;11.45;;
49392;SDS011;35268;42.642;23.308;2022-12-20T06:18:24;35.35;;;13.45;;
49392;SDS011;35268;42.642;23.308;2022-12-20T06:20:50;33.90;;;14.60;;
49392;SDS011;35268;42.642;23.308;2022-12-20T06:23:16;26.45;;;12.77;;
49392;SDS011;35268;42.642;23.308;2022-12-20T06:25:42;27.92;;;13.00;;
49392;SDS011;35268;42.642;23.308;2022-12-20T06:28:08;30.45;;;14.75;;
49392;SDS011;35268;42.642;23.308;2022-12-20T06:30:34;49.15;;;17.30;;
49392;SDS011;35268;42.642;23.308;2022-12-20T06:33:00;35.47;;;14.43;;
49392;SDS011;35268;42.642;23.308;2022-12-20T06:35:26;26.27;;;11.90;;
49392;SDS011;35268;42.642;23.308;2022-12-20T06:37:51;33.17;;;13.07;;
49392;SDS011;35268;42.642;23.308;2022-12-20T06:40:17;27.10;;;12.30;;
49392;SDS011;35268;42.642;23.308;2022-12-20T06:42:42;28.83;;;12.55;;
49392;SDS011;35268;42.642;23.308;2022-12-20T06:45:08;36.75;;;12.80;;
49392;SDS011;35268;42.642;23.308;2022-12-20T06:47:34;28.20;;;12.20;;
49392;SDS011;35268;42.642;23.308;2022-12-20T06:50:00;29.83;;;11.57;;
49392;SDS011;35268;42.642;23.308;2022-12-20T06:52:25;25.45;;;10.38;;
49392;SDS011;35268;42.642;23.308;2022-12-20T06:54:51;29.00;;;11.38;;
49392;SDS011;35268;42.642;23.308;2022-12-20T06:57:16;22.42;;;10.45;;
49392;SDS011;35268;42.642;23.308;2022-12-20T06:59:41;22.85;;;10.57;;
49392;SDS011;35268;42.642;23.308;2022-12-20T07:02:08;26.80;;;11.43;;
49392;SDS011;35268;42.642;23.308;2022-12-20T07:04:35;26.83;;;11.20;;
49392;SDS011;35268;42.642;23.308;2022-12-20T07:07:01;34.13;;;12.75;;
49392;SDS011;35268;42.642;23.308;2022-12-20T07:09:27;29.02;;;12.55;;
49392;SDS011;35268;42.642;23.308;2022-12-20T07:11:53;25.55;;;11.68;;
49392;SDS011;35268;42.642;23.308;2022-12-20T07:14:19;32.08;;;13.38;;
49392;SDS011;35268;42.642;23.308;2022-12-20T07:16:45;30.63;;;11.23;;
49392;SDS011;35268;42.642;23.308;2022-12-20T07:19:10;22.42;;;9.85;;
49392;SDS011;35268;42.642;23.308;2022-12-20T07:21:37;24.63;;;9.63;;
49392;SDS011;35268;42.642;23.308;2022-12-20T07:24:02;20.95;;;10.00;;
49392;SDS011;35268;42.642;23.308;2022-12-20T07:26:28;25.80;;;9.68;;
49392;SDS011;35268;42.642;23.308;2022-12-20T07:28:53;22.10;;;11.07;;
49392;SDS011;35268;42.642;23.308;2022-12-20T07:31:19;22.38;;;9.85;;
49392;SDS011;35268;42.642;23.308;2022-12-20T07:33:44;19.77;;;9.43;;
49392;SDS011;35268;42.642;23.308;2022-12-20T07:36:10;17.80;;;9.30;;
49392;SDS011;35268;42.642;23.308;2022-12-20T07:38:37;22.60;;;7.53;;
49392;SDS011;35268;42.642;23.308;2022-12-20T07:41:07;25.88;;;9.93;;
49392;SDS011;35268;42.642;23.308;2022-12-20T07:43:33;21.27;;;9.05;;
49392;SDS011;35268;42.642;23.308;2022-12-20T07:45:59;22.83;;;8.82;;
49392;SDS011;35268;42.642;23.308;2022-12-20T07:48:25;19.75;;;8.20;;
49392;SDS011;35268;42.642;23.308;2022-12-20T07:50:54;21.23;;;8.40;;
49392;SDS011;35268;42.642;23.308;2022-12-20T07:53:34;18.65;;;7.35;;
49392;SDS011;35268;42.642;23.308;2022-12-20T07:56:04;17.20;;;6.88;;
49392;SDS011;35268;42.642;23.308;2022-12-20T07:58:32;20.92;;;8.32;;
49392;SDS011;35268;42.642;23.308;2022-12-20T08:00:59;20.33;;;7.00;;
49392;SDS011;35268;42.642;23.308;2022-12-20T08:03:30;18.65;;;9.38;;
49392;SDS011;35268;42.642;23.308;2022-12-20T08:06:01;18.58;;;8.48;;
49392;SDS011;35268;42.642;23.308;2022-12-20T08:08:33;23.20;;;8.70;;
49392;SDS011;35268;42.642;23.308;2022-12-20T08:11:03;25.70;;;9.57;;
49392;SDS011;35268;42.642;23.308;2022-12-20T08:13:31;20.45;;;8.98;;
49392;SDS011;35268;42.642;23.308;2022-12-20T08:15:58;26.98;;;8.70;;
49392;SDS011;35268;42.642;23.308;2022-12-20T08:18:24;21.30;;;9.20;;
49392;SDS011;35268;42.642;23.308;2022-12-20T08:20:49;57.20;;;24.88;;
49392;SDS011;35268;42.642;23.308;2022-12-20T08:23:15;35.35;;;15.88;;
49392;SDS011;35268;42.642;23.308;2022-12-20T08:25:40;36.22;;;17.42;;
49392;SDS011;35268;42.642;23.308;2022-12-20T08:28:06;22.08;;;10.40;;
49392;SDS011;35268;42.642;23.308;2022-12-20T08:30:31;22.92;;;8.65;;
49392;SDS011;35268;42.642;23.308;2022-12-20T08:32:57;17.80;;;8.55;;
49392;SDS011;35268;42.642;23.308;2022-12-20T08:35:22;25.38;;;9.00;;
49392;SDS011;35268;42.642;23.308;2022-12-20T08:37:51;18.33;;;8.98;;
49392;SDS011;35268;42.642;23.308;2022-12-20T08:40:17;19.25;;;8.35;;
49392;SDS011;35268;42.642;23.308;2022-12-20T08:42:43;24.42;;;8.50;;
49392;SDS011;35268;42.642;23.308;2022-12-20T08:45:08;21.25;;;9.18;;
49392;SDS011;35268;42.642;23.308;2022-12-20T08:47:34;18.00;;;7.82;;
49392;SDS011;35268;42.642;23.308;2022-12-20T08:50:00;20.83;;;8.20;;
49392;SDS011;35268;42.642;23.308;2022-12-20T08:52:27;21.23;;;8.95;;
49392;SDS011;35268;42.642;23.308;2022-12-20T08:54:53;17.45;;;8.25;;
49392;SDS011;35268;42.642;23.308;2022-12-20T08:57:19;15.88;;;7.85;;
49392;SDS011;35268;42.642;23.308;2022-12-20T08:59:44;19.40;;;8.20;;
49392;SDS011;35268;42.642;23.308;2022-12-20T09:02:10;18.38;;;8.32;;
49392;SDS011;35268;42.642;23.308;2022-12-20T09:04:36;18.45;;;8.50;;
49392;SDS011;35268;42.642;23.308;2022-12-20T09:07:02;16.95;;;8.05;;
49392;SDS011;35268;42.642;23.308;2022-12-20T09:09:27;24.70;;;7.70;;
49392;SDS011;35268;42.642;23.308;2022-12-20T09:11:55;18.95;;;8.57;;
49392;SDS011;35268;42.642;23.308;2022-12-20T09:14:27;21.52;;;8.43;;
49392;SDS011;35268;42.642;23.308;2022-12-20T09:16:54;20.73;;;7.57;;
49392;SDS011;35268;42.642;23.308;2022-12-20T09:22:02;16.85;;;7.55;;
49392;SDS011;35268;42.642;23.308;2022-12-20T09:24:30;19.55;;;7.88;;
49392;SDS011;35268;42.642;23.308;2022-12-20T09:26:56;16.75;;;7.85;;
49392;SDS011;35268;42.642;23.308;2022-12-20T09:29:21;18.33;;;8.48;;
49392;SDS011;35268;42.642;23.308;2022-12-20T09:31:48;15.30;;;7.28;;
49392;SDS011;35268;42.642;23.308;2022-12-20T09:34:13;19.75;;;8.98;;
49392;SDS011;35268;42.642;23.308;2022-12-20T09:36:39;16.23;;;7.35;;
49392;SDS011;35268;42.642;23.308;2022-12-20T09:39:05;14.57;;;7.82;;
49392;SDS011;35268;42.642;23.308;2022-12-20T09:41:32;22.17;;;8.05;;
49392;SDS011;35268;42.642;23.308;2022-12-20T09:44:03;20.63;;;8.80;;
49392;SDS011;35268;42.642;23.308;2022-12-20T09:46:36;17.10;;;8.98;;
49392;SDS011;35268;42.642;23.308;2022-12-20T09:49:03;18.20;;;7.57;;
49392;SDS011;35268;42.642;23.308;2022-12-20T09:51:44;17.85;;;7.18;;
49392;SDS011;35268;42.642;23.308;2022-12-20T09:57:24;24.30;;;8.20;;
49392;SDS011;35268;42.642;23.308;2022-12-20T10:00:14;33.15;;;10.55;;
49392;SDS011;35268;42.642;23.308;2022-12-20T10:02:41;16.63;;;8.02;;
49392;SDS011;35268;42.642;23.308;2022-12-20T10:05:19;19.90;;;8.40;;
49392;SDS011;35268;42.642;23.308;2022-12-20T10:07:54;23.35;;;8.90;;
49392;SDS011;35268;42.642;23.308;2022-12-20T10:13:05;17.63;;;7.63;;
49392;SDS011;35268;42.642;23.308;2022-12-20T10:16:13;17.38;;;8.70;;
49392;SDS011;35268;42.642;23.308;2022-12-20T10:24:03;18.13;;;8.32;;
49392;SDS011;35268;42.642;23.308;2022-12-20T10:26:34;18.77;;;8.75;;
49392;SDS011;35268;42.642;23.308;2022-12-20T10:28:59;21.08;;;8.35;;
49392;SDS011;35268;42.642;23.308;2022-12-20T10:31:25;18.05;;;8.80;;
49392;SDS011;35268;42.642;23.308;2022-12-20T10:33:51;17.70;;;7.78;;
49392;SDS011;35268;42.642;23.308;2022-12-20T10:38:53;14.40;;;7.35;;
49392;SDS011;35268;42.642;23.308;2022-12-20T10:41:23;18.13;;;7.63;;
49392;SDS011;35268;42.642;23.308;2022-12-20T10:43:55;14.73;;;7.25;;
49392;SDS011;35268;42.642;23.308;2022-12-20T10:46:34;16.58;;;7.85;;
49392;SDS011;35268;42.642;23.308;2022-12-20T10:49:20;20.52;;;7.45;;
49392;SDS011;35268;42.642;23.308;2022-12-20T10:51:56;21.45;;;9.45;;
49392;SDS011;35268;42.642;23.308;2022-12-20T10:54:34;18.27;;;8.05;;
49392;SDS011;35268;42.642;23.308;2022-12-20T10:59:57;21.83;;;7.97;;
49392;SDS011;35268;42.642;23.308;2022-12-20T11:02:30;22.10;;;7.18;;
49392;SDS011;35268;42.642;23.308;2022-12-20T11:05:02;16.88;;;7.95;;
49392;SDS011;35268;42.642;23.308;2022-12-20T11:07:55;13.48;;;6.75;;
49392;SDS011;35268;42.642;23.308;2022-12-20T11:10:24;18.27;;;7.68;;
49392;SDS011;35268;42.642;23.308;2022-12-20T11:12:53;18.70;;;7.15;;
49392;SDS011;35268;42.642;23.308;2022-12-20T11:15:22;17.70;;;8.50;;
49392;SDS011;35268;42.642;23.308;2022-12-20T11:18:00;12.70;;;6.85;;
49392;SDS011;35268;42.642;23.308;2022-12-20T11:33:57;12.60;;;7.97;;
49392;SDS011;35268;42.642;23.308;2022-12-20T11:42:39;13.65;;;6.35;;
49392;SDS011;35268;42.642;23.308;2022-12-20T11:53:31;16.48;;;6.80;;
49392;SDS011;35268;42.642;23.308;2022-12-20T11:56:01;16.00;;;7.10;;
49392;SDS011;35268;42.642;23.308;2022-12-20T12:01:07;19.90;;;6.85;;
49392;SDS011;35268;42.642;23.308;2022-12-20T12:03:38;17.95;;;6.85;;
49392;SDS011;35268;42.642;23.308;2022-12-20T12:06:15;14.85;;;6.28;;
49392;SDS011;35268;42.642;23.308;2022-12-20T12:08:47;16.63;;;5.90;;
49392;SDS011;35268;42.642;23.308;2022-12-20T12:11:35;13.68;;;6.35;;
49392;SDS011;35268;42.642;23.308;2022-12-20T12:14:44;19.23;;;7.05;;
49392;SDS011;35268;42.642;23.308;2022-12-20T12:22:45;26.17;;;6.68;;
49392;SDS011;35268;42.642;23.308;2022-12-20T12:25:16;13.68;;;6.75;;
49392;SDS011;35268;42.642;23.308;2022-12-20T12:27:43;15.20;;;6.57;;
49392;SDS011;35268;42.642;23.308;2022-12-20T12:30:16;23.70;;;7.85;;
49392;SDS011;35268;42.642;23.308;2022-12-20T12:39:03;15.63;;;7.03;;
49392;SDS011;35268;42.642;23.308;2022-12-20T12:44:22;11.70;;;6.07;;
49392;SDS011;35268;42.642;23.308;2022-12-20T12:46:56;18.13;;;6.93;;
49392;SDS011;35268;42.642;23.308;2022-12-20T12:49:29;17.20;;;6.82;;
49392;SDS011;35268;42.642;23.308;2022-12-20T12:51:57;18.75;;;6.90;;
49392;SDS011;35268;42.642;23.308;2022-12-20T12:54:28;17.48;;;6.88;;
49392;SDS011;35268;42.642;23.308;2022-12-20T12:57:00;23.80;;;7.32;;
49392;SDS011;35268;42.642;23.308;2022-12-20T13:04:30;18.23;;;7.90;;
49392;SDS011;35268;42.642;23.308;2022-12-20T13:09:59;21.77;;;9.50;;
49392;SDS011;35268;42.642;23.308;2022-12-20T13:20:21;25.67;;;11.00;;
49392;SDS011;35268;42.642;23.308;2022-12-20T13:25:37;25.90;;;11.85;;
49392;SDS011;35268;42.642;23.308;2022-12-20T13:28:46;25.38;;;11.18;;
49392;SDS011;35268;42.642;23.308;2022-12-20T13:33:41;37.47;;;15.25;;
49392;SDS011;35268;42.642;23.308;2022-12-20T13:43:44;40.83;;;18.50;;
49392;SDS011;35268;42.642;23.308;2022-12-20T13:46:18;38.30;;;17.90;;
49392;SDS011;35268;42.642;23.308;2022-12-20T13:48:50;39.22;;;16.25;;
49392;SDS011;35268;42.642;23.308;2022-12-20T13:51:24;41.67;;;15.35;;
49392;SDS011;35268;42.642;23.308;2022-12-20T13:59:03;39.97;;;17.27;;
49392;SDS011;35268;42.642;23.308;2022-12-20T14:01:32;44.75;;;18.95;;
49392;SDS011;35268;42.642;23.308;2022-12-20T14:04:01;48.47;;;19.23;;
49392;SDS011;35268;42.642;23.308;2022-12-20T14:06:31;42.42;;;19.52;;
49392;SDS011;35268;42.642;23.308;2022-12-20T14:08:57;38.28;;;18.83;;
49392;SDS011;35268;42.642;23.308;2022-12-20T14:11:24;41.13;;;15.82;;
49392;SDS011;35268;42.642;23.308;2022-12-20T14:13:55;35.78;;;14.57;;
49392;SDS011;35268;42.642;23.308;2022-12-20T14:16:25;49.42;;;15.82;;
49392;SDS011;35268;42.642;23.308;2022-12-20T14:21:21;38.33;;;15.98;;
49392;SDS011;35268;42.642;23.308;2022-12-20T14:23:48;45.58;;;15.75;;
49392;SDS011;35268;42.642;23.308;2022-12-20T14:26:17;42.92;;;16.70;;
49392;SDS011;35268;42.642;23.308;2022-12-20T14:28:48;46.25;;;18.85;;
49392;SDS011;35268;42.642;23.308;2022-12-20T14:31:26;48.53;;;15.90;;
49392;SDS011;35268;42.642;23.308;2022-12-20T14:36:26;33.58;;;16.75;;
49392;SDS011;35268;42.642;23.308;2022-12-20T14:38:52;46.53;;;16.85;;
49392;SDS011;35268;42.642;23.308;2022-12-20T14:44:02;32.45;;;14.57;;
49392;SDS011;35268;42.642;23.308;2022-12-20T14:46:31;30.95;;;14.95;;
49392;SDS011;35268;42.642;23.308;2022-12-20T14:52:12;38.55;;;16.42;;
49392;SDS011;35268;42.642;23.308;2022-12-20T14:54:43;46.17;;;17.38;;
49392;SDS011;35268;42.642;23.308;2022-12-20T15:02:32;49.60;;;20.33;;
49392;SDS011;35268;42.642;23.308;2022-12-20T15:16:02;42.58;;;16.10;;
49392;SDS011;35268;42.642;23.308;2022-12-20T15:18:39;42.55;;;17.85;;
49392;SDS011;35268;42.642;23.308;2022-12-20T15:23:48;53.47;;;18.20;;
49392;SDS011;35268;42.642;23.308;2022-12-20T15:26:17;42.22;;;16.70;;
49392;SDS011;35268;42.642;23.308;2022-12-20T15:28:44;46.22;;;17.85;;
49392;SDS011;35268;42.642;23.308;2022-12-20T15:31:14;48.00;;;19.38;;
49392;SDS011;35268;42.642;23.308;2022-12-20T15:33:42;56.58;;;18.83;;
49392;SDS011;35268;42.642;23.308;2022-12-20T15:36:12;48.05;;;19.92;;
49392;SDS011;35268;42.642;23.308;2022-12-20T15:38:42;43.63;;;18.13;;
49392;SDS011;35268;42.642;23.308;2022-12-20T15:41:10;47.20;;;19.30;;
49392;SDS011;35268;42.642;23.308;2022-12-20T15:43:41;39.00;;;17.95;;
49392;SDS011;35268;42.642;23.308;2022-12-20T15:46:07;37.58;;;17.92;;
49392;SDS011;35268;42.642;23.308;2022-12-20T15:48:33;41.45;;;16.75;;
49392;SDS011;35268;42.642;23.308;2022-12-20T15:50:58;46.28;;;19.27;;
49392;SDS011;35268;42.642;23.308;2022-12-20T15:53:26;44.83;;;18.33;;
49392;SDS011;35268;42.642;23.308;2022-12-20T15:55:55;41.35;;;18.13;;
49392;SDS011;35268;42.642;23.308;2022-12-20T15:58:21;52.63;;;19.45;;
49392;SDS011;35268;42.642;23.308;2022-12-20T16:00:48;49.00;;;20.85;;
49392;SDS011;35268;42.642;23.308;2022-12-20T16:03:17;53.05;;;23.38;;
49392;SDS011;35268;42.642;23.308;2022-12-20T16:05:46;56.97;;;24.85;;
49392;SDS011;35268;42.642;23.308;2022-12-20T16:08:12;61.45;;;25.83;;
49392;SDS011;35268;42.642;23.308;2022-12-20T16:10:38;57.22;;;27.20;;
49392;SDS011;35268;42.642;23.308;2022-12-20T16:13:04;73.65;;;28.85;;
49392;SDS011;35268;42.642;23.308;2022-12-20T16:15:31;57.75;;;26.30;;
49392;SDS011;35268;42.642;23.308;2022-12-20T16:18:00;66.35;;;25.48;;
49392;SDS011;35268;42.642;23.308;2022-12-20T16:20:25;52.88;;;25.73;;
49392;SDS011;35268;42.642;23.308;2022-12-20T16:22:51;63.53;;;25.50;;
49392;SDS011;35268;42.642;23.308;2022-12-20T16:25:19;62.10;;;26.95;;
49392;SDS011;35268;42.642;23.308;2022-12-20T16:27:51;60.83;;;28.05;;
49392;SDS011;35268;42.642;23.308;2022-12-20T16:30:17;62.63;;;26.45;;
49392;SDS011;35268;42.642;23.308;2022-12-20T16:32:45;67.97;;;27.75;;
49392;SDS011;35268;42.642;23.308;2022-12-20T16:35:24;58.95;;;27.75;;
49392;SDS011;35268;42.642;23.308;2022-12-20T16:37:55;50.25;;;23.17;;
49392;SDS011;35268;42.642;23.308;2022-12-20T16:40:22;66.30;;;26.85;;
49392;SDS011;35268;42.642;23.308;2022-12-20T16:42:49;81.00;;;30.95;;
49392;SDS011;35268;42.642;23.308;2022-12-20T16:45:16;94.72;;;36.65;;
49392;SDS011;35268;42.642;23.308;2022-12-20T16:47:45;88.72;;;34.13;;
49392;SDS011;35268;42.642;23.308;2022-12-20T16:50:15;61.30;;;27.20;;
49392;SDS011;35268;42.642;23.308;2022-12-20T16:52:41;48.22;;;23.23;;
49392;SDS011;35268;42.642;23.308;2022-12-20T16:55:09;60.28;;;23.15;;